createdAt,value
2023-04-15T00:02:19.004Z,98.43
2023-04-15T00:04:47.488Z,98.39
2023-04-15T00:07:18.037Z,98.41
2023-04-15T00:09:46.392Z,98.44
2023-04-15T00:12:14.425Z,98.48
2023-04-15T00:14:42.827Z,98.46
2023-04-15T00:17:11.147Z,98.48
2023-04-15T00:19:40.796Z,98.49
2023-04-15T00:22:09.281Z,98.51
2023-04-15T00:24:38.741Z,98.51
2023-04-15T00:27:06.752Z,98.51
2023-04-15T00:29:36.137Z,98.48
2023-04-15T00:32:04.408Z,98.49
2023-04-15T00:34:33.410Z,98.54
2023-04-15T00:37:02.624Z,98.55
2023-04-15T00:39:33.261Z,98.53
2023-04-15T00:42:03.507Z,98.54
2023-04-15T00:44:35.494Z,98.54
2023-04-15T00:47:06.517Z,98.55
2023-04-15T00:49:36.777Z,98.57
2023-04-15T00:52:05.239Z,98.55
2023-04-15T00:54:33.994Z,98.62
2023-04-15T00:57:03.546Z,98.59
2023-04-15T00:59:31.672Z,98.60
2023-04-15T01:02:01.448Z,98.59
2023-04-15T01:04:29.990Z,98.60
2023-04-15T01:06:58.703Z,98.59
2023-04-15T01:09:29.390Z,98.58
2023-04-15T01:11:58.633Z,98.62
2023-04-15T01:14:28.452Z,98.63
2023-04-15T01:16:59.096Z,98.62
2023-04-15T01:19:27.486Z,98.62
2023-04-15T01:21:56.578Z,98.61
2023-04-15T01:24:25.169Z,98.62
2023-04-15T01:26:54.496Z,98.61
2023-04-15T01:29:23.253Z,98.61
2023-04-15T01:31:53.140Z,98.65
2023-04-15T01:34:23.657Z,98.60
2023-04-15T01:36:52.474Z,98.63
2023-04-15T01:39:20.549Z,98.63
2023-04-15T01:41:50.669Z,98.61
2023-04-15T01:44:44.840Z,98.62
2023-04-15T01:47:14.211Z,98.62
2023-04-15T01:49:42.502Z,98.64
2023-04-15T01:52:10.715Z,98.60
2023-04-15T01:54:39.252Z,98.58
2023-04-15T01:57:07.401Z,98.60
2023-04-15T01:59:37.176Z,98.58
2023-04-15T02:02:05.625Z,98.55
2023-04-15T02:04:34.207Z,98.56
2023-04-15T02:07:03.305Z,98.59
2023-04-15T02:09:34.116Z,98.55
2023-04-15T02:12:04.611Z,98.55
2023-04-15T02:14:33.142Z,98.54
2023-04-15T02:17:07.430Z,98.56
2023-04-15T02:19:35.618Z,98.58
2023-04-15T02:22:06.120Z,98.57
2023-04-15T02:24:53.852Z,98.58
2023-04-15T02:27:22.571Z,98.58
2023-04-15T02:29:51.282Z,98.60
2023-04-15T02:32:25.144Z,98.61
2023-04-15T02:34:53.172Z,98.58
2023-04-15T02:37:23.736Z,98.60
2023-04-15T02:39:58.884Z,98.59
2023-04-15T02:42:28.828Z,98.58
2023-04-15T02:44:58.267Z,98.57
2023-04-15T02:47:27.924Z,98.53
2023-04-15T02:50:05.236Z,98.50
2023-04-15T02:52:38.647Z,98.54
2023-04-15T02:55:08.231Z,98.55
2023-04-15T02:57:39.244Z,98.55
2023-04-15T03:00:11.500Z,98.59
2023-04-15T03:02:42.490Z,98.58
2023-04-15T03:05:13.228Z,98.57
2023-04-15T03:07:41.388Z,98.57
2023-04-15T03:10:12.183Z,98.58
2023-04-15T03:12:46.448Z,98.59
2023-04-15T03:15:14.730Z,98.57
2023-04-15T03:17:44.223Z,98.64
2023-04-15T03:20:12.775Z,98.60
2023-04-15T03:22:48.616Z,98.65
2023-04-15T03:25:31.945Z,98.63
2023-04-15T03:28:05.452Z,98.65
2023-04-15T03:30:39.504Z,98.63
2023-04-15T03:33:10.395Z,98.64
2023-04-15T03:35:38.863Z,98.64
2023-04-15T03:38:07.301Z,98.64
2023-04-15T03:40:40.061Z,98.67
2023-04-15T03:43:08.713Z,98.69
2023-04-15T03:45:43.109Z,98.67
2023-04-15T03:48:21.105Z,98.66
2023-04-15T03:50:51.477Z,98.66
2023-04-15T03:53:20.069Z,98.69
2023-04-15T03:55:48.172Z,98.66
2023-04-15T03:58:19.640Z,98.69
2023-04-15T04:00:56.995Z,98.63
2023-04-15T04:03:31.840Z,98.66
2023-04-15T04:06:02.199Z,98.64
2023-04-15T04:08:30.416Z,98.69
2023-04-15T04:11:03.992Z,98.69
2023-04-15T04:13:33.697Z,98.69
2023-04-15T04:16:04.907Z,98.68
2023-04-15T04:18:34.966Z,98.64
2023-04-15T04:21:04.655Z,98.68
2023-04-15T04:23:32.945Z,98.67
2023-04-15T04:26:01.096Z,98.66
2023-04-15T04:28:31.613Z,98.66
2023-04-15T04:31:07.533Z,98.69
2023-04-15T04:33:36.917Z,98.72
2023-04-15T04:36:06.286Z,98.70
2023-04-15T04:38:38.569Z,98.72
2023-04-15T04:41:06.545Z,98.71
2023-04-15T04:43:34.593Z,98.66
2023-04-15T04:46:02.752Z,98.67
2023-04-15T04:48:32.589Z,98.68
2023-04-15T04:51:02.171Z,98.67
2023-04-15T04:53:31.690Z,98.71
2023-04-15T04:55:59.902Z,98.71
2023-04-15T04:58:30.715Z,98.67
2023-04-15T05:00:58.796Z,98.67
2023-04-15T05:03:29.722Z,98.69
2023-04-15T05:05:59.562Z,98.71
2023-04-15T05:08:30.275Z,98.67
2023-04-15T05:10:58.376Z,98.69
2023-04-15T05:13:26.522Z,98.69
2023-04-15T05:15:54.874Z,98.67
2023-04-15T05:18:23.612Z,98.66
2023-04-15T05:20:51.684Z,98.68
2023-04-15T05:23:20.315Z,98.69
2023-04-15T05:25:50.017Z,98.69
2023-04-15T05:28:18.972Z,98.67
2023-04-15T05:30:47.231Z,98.68
2023-04-15T05:33:17.591Z,98.70
2023-04-15T05:35:48.409Z,98.67
2023-04-15T05:38:16.614Z,98.63
2023-04-15T05:40:44.726Z,98.65
2023-04-15T05:43:15.943Z,98.61
2023-04-15T05:45:43.979Z,98.65
2023-04-15T05:48:13.547Z,98.65
2023-04-15T05:50:42.393Z,98.66
2023-04-15T05:53:10.668Z,98.66
2023-04-15T05:55:38.638Z,98.66
2023-04-15T05:58:06.791Z,98.62
2023-04-15T06:00:36.602Z,98.65
2023-04-15T06:03:04.756Z,98.66
2023-04-15T06:05:34.601Z,98.67
2023-04-15T06:08:06.396Z,98.71
2023-04-15T06:10:36.983Z,98.64
2023-04-15T06:13:08.023Z,98.61
2023-04-15T06:15:38.757Z,98.63
2023-04-15T06:18:06.759Z,98.64
2023-04-15T06:20:34.808Z,98.58
2023-04-15T06:23:03.705Z,98.57
2023-04-15T06:25:35.940Z,98.51
2023-04-15T06:28:04.087Z,98.48
2023-04-15T06:30:33.344Z,98.40
2023-04-15T06:33:07.753Z,98.38
2023-04-15T06:35:37.224Z,98.39
2023-04-15T06:38:05.178Z,98.41
2023-04-15T06:40:34.311Z,98.35
2023-04-15T06:43:02.703Z,98.20
2023-04-15T06:45:34.198Z,98.13
2023-04-15T06:48:07.185Z,98.04
2023-04-15T06:50:36.030Z,98.01
2023-04-15T06:53:04.110Z,98.11
2023-04-15T06:55:35.193Z,97.86
2023-04-15T06:58:03.951Z,97.79
2023-04-15T07:00:34.088Z,97.70
2023-04-15T07:03:03.891Z,97.52
2023-04-15T07:05:43.309Z,97.30
2023-04-15T07:08:12.416Z,97.16
2023-04-15T07:10:43.620Z,96.85
2023-04-15T07:13:11.816Z,96.78
2023-04-15T07:15:39.856Z,96.40
2023-04-15T07:18:08.145Z,96.16
2023-04-15T07:20:37.893Z,95.67
2023-04-15T07:23:05.937Z,95.22
2023-04-15T07:25:35.043Z,95.03
2023-04-15T07:28:03.600Z,95.02
2023-04-15T07:30:36.825Z,93.88
2023-04-15T07:33:04.911Z,93.39
2023-04-15T07:35:33.294Z,93.34
2023-04-15T07:38:03.954Z,92.67
2023-04-15T07:40:32.238Z,92.45
2023-04-15T07:43:00.259Z,92.16
2023-04-15T07:45:31.055Z,91.91
2023-04-15T07:47:59.220Z,91.79
2023-04-15T07:50:27.475Z,91.78
2023-04-15T07:52:56.087Z,91.78
2023-04-15T07:55:27.739Z,91.49
2023-04-15T07:57:58.688Z,91.55
2023-04-15T08:00:27.193Z,91.69
2023-04-15T08:02:57.539Z,91.49
2023-04-15T08:05:26.266Z,90.93
2023-04-15T08:07:54.896Z,90.64
2023-04-15T08:10:24.191Z,90.43
2023-04-15T08:13:00.194Z,90.42
2023-04-15T08:15:34.272Z,90.39
2023-04-15T08:18:02.818Z,90.25
2023-04-15T08:20:31.280Z,90.19
2023-04-15T08:22:59.360Z,90.32
2023-04-15T08:25:28.485Z,90.31
2023-04-15T08:28:00.578Z,89.85
2023-04-15T08:30:29.673Z,89.95
2023-04-15T08:32:58.859Z,89.97
2023-04-15T08:35:34.137Z,89.95
2023-04-15T08:38:03.220Z,90.01
2023-04-15T08:40:40.640Z,89.80
2023-04-15T08:43:13.902Z,89.90
2023-04-15T08:45:43.842Z,89.84
2023-04-15T08:48:20.505Z,89.96
2023-04-15T08:50:49.349Z,89.80
2023-04-15T08:53:18.013Z,89.94
2023-04-15T08:55:54.354Z,89.89
2023-04-15T08:58:25.031Z,90.06
2023-04-15T09:00:53.298Z,90.36
2023-04-15T09:03:23.659Z,90.23
2023-04-15T09:05:53.260Z,90.02
2023-04-15T09:08:22.257Z,89.85
2023-04-15T09:10:50.853Z,89.80
2023-04-15T09:13:23.721Z,89.93
2023-04-15T09:15:53.946Z,89.83
2023-04-15T09:18:29.615Z,89.84
2023-04-15T09:21:07.198Z,89.85
2023-04-15T09:23:36.011Z,89.92
2023-04-15T09:26:04.446Z,89.94
2023-04-15T09:28:32.934Z,89.73
2023-04-15T09:31:03.708Z,89.69
2023-04-15T09:33:32.942Z,89.79
2023-04-15T09:36:04.853Z,89.50
2023-04-15T09:38:33.306Z,89.63
2023-04-15T09:41:04.312Z,89.84
2023-04-15T09:43:39.747Z,89.98
2023-04-15T09:46:09.525Z,90.17
2023-04-15T09:48:39.633Z,90.13
2023-04-15T09:51:07.662Z,90.08
2023-04-15T09:53:37.085Z,90.27
2023-04-15T09:56:09.286Z,90.42
2023-04-15T09:58:41.698Z,90.66
2023-04-15T10:01:12.073Z,91.02
2023-04-15T10:03:46.434Z,91.19
2023-04-15T10:06:16.487Z,91.46
2023-04-15T10:08:44.609Z,92.10
2023-04-15T10:11:14.407Z,92.81
2023-04-15T10:13:43.411Z,93.38
2023-04-15T10:16:15.571Z,93.17
2023-04-15T10:18:46.337Z,93.25
2023-04-15T10:21:18.575Z,93.17
2023-04-15T10:23:47.426Z,93.37
2023-04-15T10:26:17.699Z,93.35
2023-04-15T10:28:47.199Z,93.08
2023-04-15T10:31:17.078Z,93.37
2023-04-15T10:33:45.903Z,93.11
2023-04-15T10:36:15.811Z,92.79
2023-04-15T10:38:48.060Z,92.87
2023-04-15T10:41:21.415Z,92.90
2023-04-15T10:43:51.485Z,92.99
2023-04-15T10:46:40.093Z,93.28
2023-04-15T10:49:11.589Z,93.46
2023-04-15T10:51:42.917Z,93.76
2023-04-15T10:54:15.404Z,93.87
2023-04-15T10:56:44.859Z,94.15
2023-04-15T10:59:12.971Z,94.34
2023-04-15T11:02:00.258Z,94.59
2023-04-15T11:04:54.297Z,94.77
2023-04-15T11:07:38.895Z,94.83
2023-04-15T11:10:53.052Z,94.77
2023-04-15T11:13:33.209Z,94.95
2023-04-15T11:16:03.895Z,94.94
2023-04-15T11:18:36.353Z,95.03
2023-04-15T11:21:06.774Z,95.04
2023-04-15T11:23:39.008Z,95.02
2023-04-15T11:26:10.000Z,95.08
2023-04-15T11:28:40.316Z,95.13
2023-04-15T11:31:11.310Z,95.29
2023-04-15T11:33:48.119Z,95.35
2023-04-15T11:36:19.367Z,95.35
2023-04-15T11:38:50.017Z,95.44
2023-04-15T11:41:22.376Z,95.52
2023-04-15T11:43:53.090Z,95.53
2023-04-15T11:46:22.864Z,95.43
2023-04-15T11:48:52.516Z,95.54
2023-04-15T11:51:23.787Z,95.66
2023-04-15T11:53:52.618Z,95.61
2023-04-15T11:56:25.416Z,95.67
2023-04-15T11:58:57.139Z,95.71
2023-04-15T12:01:32.416Z,95.73
2023-04-15T12:04:04.016Z,95.83
2023-04-15T12:06:37.350Z,95.86
2023-04-15T12:09:09.913Z,95.85
2023-04-15T12:11:40.746Z,95.91
2023-04-15T12:14:11.578Z,95.92
2023-04-15T12:16:48.450Z,95.99
2023-04-15T12:19:22.194Z,96.01
2023-04-15T12:21:50.471Z,96.13
2023-04-15T12:24:23.947Z,96.16
2023-04-15T12:26:54.488Z,96.25
2023-04-15T12:29:27.710Z,96.29
2023-04-15T12:31:56.944Z,96.29
2023-04-15T12:34:30.774Z,96.27
2023-04-15T12:37:02.108Z,96.24
2023-04-15T12:39:32.602Z,96.29
2023-04-15T12:42:01.580Z,96.39
2023-04-15T12:44:30.332Z,96.42
2023-04-15T12:47:01.604Z,96.45
2023-04-15T12:49:32.661Z,96.49
2023-04-15T12:52:01.909Z,96.58
2023-04-15T12:54:33.658Z,96.54
2023-04-15T12:57:05.921Z,96.58
2023-04-15T12:59:35.862Z,96.47
2023-04-15T13:02:07.403Z,96.49
2023-04-15T13:04:38.223Z,96.49
2023-04-15T13:07:06.662Z,96.45
2023-04-15T13:09:36.055Z,96.32
2023-04-15T13:12:05.345Z,96.42
2023-04-15T13:14:34.563Z,96.51
2023-04-15T13:17:08.150Z,96.34
2023-04-15T13:19:41.176Z,96.24
2023-04-15T13:22:11.797Z,96.31
2023-04-15T13:24:44.767Z,96.28
2023-04-15T13:27:14.171Z,96.33
2023-04-15T13:29:47.647Z,96.43
2023-04-15T13:32:16.553Z,96.33
2023-04-15T13:34:46.761Z,96.38
2023-04-15T13:37:20.195Z,96.38
2023-04-15T13:39:50.085Z,96.33
2023-04-15T13:42:19.151Z,96.24
2023-04-15T13:44:50.560Z,96.37
2023-04-15T13:47:21.511Z,96.36
2023-04-15T13:49:56.510Z,96.28
2023-04-15T13:52:26.454Z,96.24
2023-04-15T13:55:06.991Z,96.23
2023-04-15T13:57:44.637Z,96.12
2023-04-15T14:00:16.744Z,96.06
2023-04-15T14:02:46.824Z,96.16
2023-04-15T14:05:16.762Z,96.11
2023-04-15T14:07:47.128Z,96.16
2023-04-15T14:10:17.700Z,96.13
2023-04-15T14:12:47.136Z,96.12
2023-04-15T14:15:18.911Z,96.02
2023-04-15T14:17:47.846Z,96.13
2023-04-15T14:20:27.980Z,96.16
2023-04-15T14:22:57.030Z,96.19
2023-04-15T14:25:33.711Z,96.25
2023-04-15T14:28:03.538Z,96.04
2023-04-15T14:30:34.186Z,96.09
2023-04-15T14:33:04.359Z,96.13
2023-04-15T14:35:36.276Z,96.13
2023-04-15T14:38:06.387Z,96.12
2023-04-15T14:40:35.819Z,96.15
2023-04-15T14:43:06.298Z,96.11
2023-04-15T14:45:40.675Z,96.10
2023-04-15T14:48:13.539Z,96.03
2023-04-15T14:50:43.303Z,96.09
2023-04-15T14:53:11.437Z,96.13
2023-04-15T14:55:39.850Z,96.22
2023-04-15T14:58:11.182Z,96.22
2023-04-15T15:00:46.929Z,96.28
2023-04-15T15:03:15.158Z,96.31
2023-04-15T15:05:46.438Z,96.40
2023-04-15T15:08:17.477Z,96.46
2023-04-15T15:10:47.954Z,96.51
2023-04-15T15:13:18.743Z,96.49
2023-04-15T15:15:49.788Z,96.58
2023-04-15T15:18:19.101Z,96.63
2023-04-15T15:20:51.039Z,96.65
2023-04-15T15:23:19.074Z,96.68
2023-04-15T15:25:48.734Z,96.72
2023-04-15T15:28:17.044Z,96.69
2023-04-15T15:30:47.797Z,96.75
2023-04-15T15:33:17.488Z,96.73
2023-04-15T15:35:45.984Z,96.81
2023-04-15T15:38:18.444Z,96.82
2023-04-15T15:40:47.312Z,96.84
2023-04-15T15:43:15.444Z,96.88
2023-04-15T15:45:43.814Z,96.88
2023-04-15T15:48:13.830Z,96.90
2023-04-15T15:50:46.520Z,96.92
2023-04-15T15:53:20.947Z,96.93
2023-04-15T15:55:50.692Z,97.00
2023-04-15T15:58:20.807Z,97.04
2023-04-15T16:00:49.766Z,96.98
2023-04-15T16:03:19.389Z,97.01
2023-04-15T16:05:49.667Z,97.03
2023-04-15T16:08:22.210Z,97.09
2023-04-15T16:10:50.439Z,97.13
2023-04-15T16:13:19.313Z,97.16
2023-04-15T16:15:49.880Z,97.13
2023-04-15T16:18:19.243Z,97.17
2023-04-15T16:20:50.600Z,97.19
2023-04-15T16:23:24.807Z,97.23
2023-04-15T16:25:58.978Z,97.20
2023-04-15T16:28:30.938Z,97.21
2023-04-15T16:30:59.428Z,97.18
2023-04-15T16:33:28.844Z,97.27
2023-04-15T16:35:56.997Z,97.31
2023-04-15T16:38:26.621Z,97.24
2023-04-15T16:40:55.198Z,97.29
2023-04-15T16:43:25.211Z,97.28
2023-04-15T16:45:53.659Z,97.33
2023-04-15T16:48:24.700Z,97.31
2023-04-15T16:50:53.199Z,97.32
2023-04-15T16:53:25.112Z,97.32
2023-04-15T16:55:55.642Z,97.37
2023-04-15T16:58:24.612Z,97.40
2023-04-15T17:00:54.807Z,97.42
2023-04-15T17:03:26.223Z,97.47
2023-04-15T17:05:54.783Z,97.43
2023-04-15T17:08:25.165Z,97.43
2023-04-15T17:10:55.475Z,97.47
2023-04-15T17:13:26.632Z,97.46
2023-04-15T17:15:56.836Z,97.46
2023-04-15T17:18:25.652Z,97.51
2023-04-15T17:20:54.213Z,97.49
2023-04-15T17:23:25.155Z,97.53
2023-04-15T17:25:53.749Z,97.53
2023-04-15T17:28:25.211Z,97.55
2023-04-15T17:30:55.363Z,97.61
2023-04-15T17:33:56.062Z,97.59
2023-04-15T17:36:14.751Z,97.64
2023-04-15T17:38:45.283Z,97.68
2023-04-15T17:41:13.774Z,97.64
2023-04-15T17:43:42.860Z,97.68
2023-04-15T17:46:19.413Z,97.69
2023-04-15T17:48:52.567Z,97.69
2023-04-15T17:51:21.021Z,97.74
2023-04-15T17:53:53.064Z,97.76
2023-04-15T17:56:25.453Z,97.78
2023-04-15T17:58:54.940Z,97.79
2023-04-15T18:01:34.542Z,97.80
2023-04-15T18:04:08.278Z,97.81
2023-04-15T18:06:39.745Z,97.81
2023-04-15T18:09:10.061Z,97.87
2023-04-15T18:11:49.237Z,97.88
2023-04-15T18:14:32.903Z,97.89
2023-04-15T18:17:05.905Z,97.93
2023-04-15T18:19:35.261Z,97.94
2023-04-15T18:22:06.600Z,97.94
2023-04-15T18:24:39.612Z,97.92
2023-04-15T18:27:09.839Z,97.92
2023-04-15T18:29:38.630Z,97.95
2023-04-15T18:32:08.680Z,97.98
2023-04-15T18:34:37.350Z,97.99
2023-04-15T18:37:09.084Z,98.01
2023-04-15T18:39:37.584Z,98.04
2023-04-15T18:42:07.844Z,98.01
2023-04-15T18:44:38.412Z,98.03
2023-04-15T18:47:09.227Z,98.06
2023-04-15T18:49:38.620Z,98.07
2023-04-15T18:52:09.346Z,98.08
2023-04-15T18:54:37.977Z,98.10
2023-04-15T18:57:09.659Z,98.12
2023-04-15T18:59:38.696Z,98.11
2023-04-15T19:02:09.161Z,98.15
2023-04-15T19:04:38.922Z,98.17
2023-04-15T19:07:09.889Z,98.17
2023-04-15T19:09:38.085Z,98.18
2023-04-15T19:12:06.610Z,98.17
2023-04-15T19:14:38.541Z,98.19
2023-04-15T19:17:07.095Z,98.23
2023-04-15T19:19:35.284Z,98.22
2023-04-15T19:22:04.649Z,98.25
2023-04-15T19:24:33.641Z,98.22
2023-04-15T19:27:03.081Z,98.27
2023-04-15T19:29:33.151Z,98.25
2023-04-15T19:32:01.545Z,98.28
2023-04-15T19:34:29.703Z,98.30
2023-04-15T19:36:58.269Z,98.31
2023-04-15T19:39:28.269Z,98.30
2023-04-15T19:41:57.775Z,98.30
2023-04-15T19:44:26.797Z,98.34
2023-04-15T19:46:55.611Z,98.35
2023-04-15T19:49:24.075Z,98.37
2023-04-15T19:51:53.508Z,98.39
2023-04-15T19:54:22.841Z,98.38
2023-04-15T19:56:53.329Z,98.36
2023-04-15T19:59:21.522Z,98.39
2023-04-15T20:01:51.203Z,98.40
2023-04-15T20:04:19.510Z,98.41
2023-04-15T20:06:48.364Z,98.42
2023-04-15T20:09:16.488Z,98.43
2023-04-15T20:12:45.923Z,98.44
2023-04-15T20:14:34.770Z,98.44
2023-04-15T20:17:03.074Z,98.46
2023-04-15T20:19:31.324Z,98.50
2023-04-15T20:21:59.623Z,98.45
2023-04-15T20:24:27.826Z,98.51
2023-04-15T20:26:57.659Z,98.51
2023-04-15T20:29:28.956Z,98.52
2023-04-15T20:32:00.487Z,98.52
2023-04-15T20:34:45.835Z,98.49
2023-04-15T20:37:14.214Z,98.51
2023-04-15T20:39:47.184Z,98.52
2023-04-15T20:42:16.229Z,98.52
2023-04-15T20:44:44.377Z,98.52
2023-04-15T20:47:16.652Z,98.51
2023-04-15T20:49:46.123Z,98.52
2023-04-15T20:52:16.504Z,98.50
2023-04-15T20:54:49.114Z,98.53
2023-04-15T20:57:19.080Z,98.52
2023-04-15T20:59:47.847Z,98.50
2023-04-15T21:02:21.342Z,98.50
2023-04-15T21:04:52.190Z,98.48
2023-04-15T21:07:22.382Z,98.46
2023-04-15T21:09:55.315Z,98.46
2023-04-15T21:12:23.864Z,98.46
2023-04-15T21:14:52.765Z,98.47
2023-04-15T21:17:22.781Z,98.44
2023-04-15T21:19:51.369Z,98.41
2023-04-15T21:22:21.691Z,98.44
2023-04-15T21:24:50.709Z,98.44
2023-04-15T21:27:22.265Z,98.42
2023-04-15T21:29:53.907Z,98.40
2023-04-15T21:32:23.756Z,98.41
2023-04-15T21:34:52.316Z,98.40
2023-04-15T21:37:21.171Z,98.38
2023-04-15T21:39:52.346Z,98.44
2023-04-15T21:42:20.938Z,98.39
2023-04-15T21:44:49.325Z,98.39
2023-04-15T21:47:18.952Z,98.38
2023-04-15T21:49:51.657Z,98.36
2023-04-15T21:52:19.735Z,98.38
2023-04-15T21:54:47.903Z,98.35
2023-04-15T21:57:16.789Z,98.37
2023-04-15T21:59:49.147Z,98.33
2023-04-15T22:02:20.137Z,98.37
2023-04-15T22:04:49.810Z,98.37
2023-04-15T22:07:20.535Z,98.39
2023-04-15T22:09:51.896Z,98.39
2023-04-15T22:12:21.028Z,98.35
2023-04-15T22:14:50.816Z,98.40
2023-04-15T22:17:27.523Z,98.35
2023-04-15T22:19:58.472Z,98.33
2023-04-15T22:22:26.605Z,98.34
2023-04-15T22:25:13.934Z,98.38
2023-04-15T22:27:43.038Z,98.37
2023-04-15T22:30:13.071Z,98.33
2023-04-15T22:32:41.964Z,98.34
2023-04-15T22:35:14.624Z,98.34
2023-04-15T22:37:43.408Z,98.35
2023-04-15T22:40:12.666Z,98.35
2023-04-15T22:42:41.072Z,98.35
2023-04-15T22:45:12.204Z,98.31
2023-04-15T22:47:40.434Z,98.32
2023-04-15T22:50:15.326Z,98.34
2023-04-15T22:52:47.167Z,98.29
2023-04-15T22:55:18.515Z,98.34
2023-04-15T22:57:46.834Z,98.37
2023-04-15T23:00:18.489Z,98.34
2023-04-15T23:02:47.928Z,98.33
2023-04-15T23:05:17.345Z,98.37
2023-04-15T23:07:45.633Z,98.34
2023-04-15T23:10:13.933Z,98.35
2023-04-15T23:12:42.183Z,98.36
2023-04-15T23:15:12.646Z,98.40
2023-04-15T23:17:41.990Z,98.38
2023-04-15T23:20:12.583Z,98.42
2023-04-15T23:22:43.175Z,98.39
2023-04-15T23:25:11.301Z,98.42
2023-04-15T23:27:39.461Z,98.39
2023-04-15T23:30:08.893Z,98.39
2023-04-15T23:32:37.484Z,98.41
2023-04-15T23:35:06.225Z,98.40
2023-04-15T23:37:34.460Z,98.46
2023-04-15T23:40:05.151Z,98.45
2023-04-15T23:42:34.152Z,98.45
2023-04-15T23:45:02.389Z,98.43
2023-04-15T23:47:30.444Z,98.45
2023-04-15T23:49:58.869Z,98.41
2023-04-15T23:52:27.000Z,98.43
2023-04-15T23:54:57.115Z,98.42
2023-04-15T23:57:26.976Z,98.41
2023-04-15T23:59:55.161Z,98.44
